sensor_id;sensor_type;location;lat;lon;timestamp;pressure;altitude;pressure_sealevel;temperature;humidity
59272;BME280;45043;51.068;7.026;2023-07-29T00:01:40;99657.16;;;16.34;75.41
59272;BME280;45043;51.068;7.026;2023-07-29T00:04:44;99656.91;;;16.35;74.99
59272;BME280;45043;51.068;7.026;2023-07-29T00:07:45;99652.34;;;16.36;74.87
59272;BME280;45043;51.068;7.026;2023-07-29T00:10:46;99643.78;;;16.34;74.42
59272;BME280;45043;51.068;7.026;2023-07-29T00:13:47;99645.13;;;16.36;74.64
59272;BME280;45043;51.068;7.026;2023-07-29T00:16:51;99641.91;;;16.34;74.93
59272;BME280;45043;51.068;7.026;2023-07-29T00:19:52;99639.78;;;16.36;74.78
59272;BME280;45043;51.068;7.026;2023-07-29T00:22:53;99636.53;;;16.34;74.82
59272;BME280;45043;51.068;7.026;2023-07-29T00:25:55;99631.91;;;16.30;74.75
59272;BME280;45043;51.068;7.026;2023-07-29T00:29:00;99627.06;;;16.26;75.18
59272;BME280;45043;51.068;7.026;2023-07-29T00:32:02;99624.88;;;16.23;75.63
59272;BME280;45043;51.068;7.026;2023-07-29T00:35:03;99619.53;;;16.23;75.46
59272;BME280;45043;51.068;7.026;2023-07-29T00:38:05;99616.81;;;16.18;75.26
59272;BME280;45043;51.068;7.026;2023-07-29T00:41:07;99619.22;;;16.20;75.71
59272;BME280;45043;51.068;7.026;2023-07-29T00:44:08;99624.34;;;16.21;75.58
59272;BME280;45043;51.068;7.026;2023-07-29T00:47:10;99620.59;;;16.22;75.54
59272;BME280;45043;51.068;7.026;2023-07-29T00:50:13;99624.06;;;16.23;75.31
59272;BME280;45043;51.068;7.026;2023-07-29T00:53:15;99621.13;;;16.24;75.06
59272;BME280;45043;51.068;7.026;2023-07-29T00:56:18;99609.84;;;16.17;75.22
59272;BME280;45043;51.068;7.026;2023-07-29T00:59:19;99622.09;;;16.13;75.85
59272;BME280;45043;51.068;7.026;2023-07-29T01:02:20;99617.81;;;16.12;75.84
59272;BME280;45043;51.068;7.026;2023-07-29T01:05:21;99612.72;;;16.11;76.14
59272;BME280;45043;51.068;7.026;2023-07-29T01:08:31;99603.59;;;16.07;76.17
59272;BME280;45043;51.068;7.026;2023-07-29T01:18:31;99603.47;;;15.96;76.88
59272;BME280;45043;51.068;7.026;2023-07-29T01:21:35;99597.63;;;15.99;76.76
59272;BME280;45043;51.068;7.026;2023-07-29T01:24:37;99595.75;;;16.00;76.55
59272;BME280;45043;51.068;7.026;2023-07-29T01:27:38;99588.50;;;16.00;76.70
59272;BME280;45043;51.068;7.026;2023-07-29T01:30:43;99591.22;;;16.06;77.01
59272;BME280;45043;51.068;7.026;2023-07-29T01:34:20;99585.06;;;16.05;76.43
59272;BME280;45043;51.068;7.026;2023-07-29T01:37:30;99591.75;;;16.02;76.83
59272;BME280;45043;51.068;7.026;2023-07-29T01:40:34;99594.97;;;16.05;77.01
59272;BME280;45043;51.068;7.026;2023-07-29T01:43:36;99587.19;;;16.03;76.94
59272;BME280;45043;51.068;7.026;2023-07-29T01:46:44;99583.50;;;16.09;76.68
59272;BME280;45043;51.068;7.026;2023-07-29T01:49:46;99590.72;;;16.09;76.99
59272;BME280;45043;51.068;7.026;2023-07-29T01:52:48;99585.94;;;16.11;76.91
59272;BME280;45043;51.068;7.026;2023-07-29T01:55:49;99578.22;;;16.19;76.18
59272;BME280;45043;51.068;7.026;2023-07-29T01:58:50;99583.38;;;16.26;76.27
59272;BME280;45043;51.068;7.026;2023-07-29T02:01:51;99581.78;;;16.30;76.11
59272;BME280;45043;51.068;7.026;2023-07-29T02:04:51;99581.50;;;16.26;76.01
59272;BME280;45043;51.068;7.026;2023-07-29T02:07:52;99573.16;;;16.23;76.03
59272;BME280;45043;51.068;7.026;2023-07-29T02:10:53;99577.16;;;16.20;76.42
59272;BME280;45043;51.068;7.026;2023-07-29T02:13:54;99582.28;;;16.22;76.40
59272;BME280;45043;51.068;7.026;2023-07-29T02:16:56;99580.69;;;16.26;76.27
59272;BME280;45043;51.068;7.026;2023-07-29T02:19:57;99571.34;;;16.29;75.80
59272;BME280;45043;51.068;7.026;2023-07-29T02:22:57;99568.66;;;16.29;75.87
59272;BME280;45043;51.068;7.026;2023-07-29T02:25:58;99564.06;;;16.24;75.72
59272;BME280;45043;51.068;7.026;2023-07-29T02:28:59;99562.41;;;16.18;76.63
59272;BME280;45043;51.068;7.026;2023-07-29T02:32:00;99568.78;;;16.12;76.41
59272;BME280;45043;51.068;7.026;2023-07-29T02:35:01;99573.53;;;16.05;77.16
59272;BME280;45043;51.068;7.026;2023-07-29T02:38:02;99574.03;;;16.01;77.39
59272;BME280;45043;51.068;7.026;2023-07-29T02:41:03;99575.69;;;16.02;77.21
59272;BME280;45043;51.068;7.026;2023-07-29T02:44:05;99570.06;;;16.04;77.72
59272;BME280;45043;51.068;7.026;2023-07-29T02:47:05;99566.56;;;16.03;77.56
59272;BME280;45043;51.068;7.026;2023-07-29T02:50:06;99567.38;;;16.04;77.57
59272;BME280;45043;51.068;7.026;2023-07-29T02:53:07;99579.97;;;16.03;77.37
59272;BME280;45043;51.068;7.026;2023-07-29T02:56:08;99581.25;;;15.96;78.11
59272;BME280;45043;51.068;7.026;2023-07-29T02:59:10;99585.22;;;15.93;78.37
59272;BME280;45043;51.068;7.026;2023-07-29T03:02:11;99579.34;;;15.91;78.40
59272;BME280;45043;51.068;7.026;2023-07-29T03:05:12;99565.06;;;15.86;78.67
59272;BME280;45043;51.068;7.026;2023-07-29T03:08:13;99565.03;;;15.81;79.39
59272;BME280;45043;51.068;7.026;2023-07-29T03:11:15;99565.25;;;15.79;79.46
59272;BME280;45043;51.068;7.026;2023-07-29T03:14:16;99566.34;;;15.78;79.52
59272;BME280;45043;51.068;7.026;2023-07-29T03:17:17;99575.97;;;15.79;79.71
59272;BME280;45043;51.068;7.026;2023-07-29T03:20:18;99578.66;;;15.79;80.11
59272;BME280;45043;51.068;7.026;2023-07-29T03:23:18;99578.34;;;15.75;80.49
59272;BME280;45043;51.068;7.026;2023-07-29T03:26:24;99577.00;;;15.73;80.59
59272;BME280;45043;51.068;7.026;2023-07-29T03:29:25;99577.00;;;15.73;80.51
59272;BME280;45043;51.068;7.026;2023-07-29T03:32:26;99569.50;;;15.75;80.93
59272;BME280;45043;51.068;7.026;2023-07-29T03:35:26;99563.91;;;15.76;81.35
59272;BME280;45043;51.068;7.026;2023-07-29T03:38:27;99565.25;;;15.79;81.34
59272;BME280;45043;51.068;7.026;2023-07-29T03:41:28;99556.16;;;15.80;81.18
59272;BME280;45043;51.068;7.026;2023-07-29T03:44:28;99563.16;;;15.81;81.02
59272;BME280;45043;51.068;7.026;2023-07-29T03:47:29;99550.06;;;15.85;81.37
59272;BME280;45043;51.068;7.026;2023-07-29T03:50:33;99551.97;;;15.89;81.29
59272;BME280;45043;51.068;7.026;2023-07-29T03:53:36;99536.47;;;15.91;80.64
59272;BME280;45043;51.068;7.026;2023-07-29T03:56:36;99545.63;;;15.95;80.49
59272;BME280;45043;51.068;7.026;2023-07-29T03:59:37;99536.53;;;16.01;80.36
59272;BME280;45043;51.068;7.026;2023-07-29T04:02:37;99550.22;;;16.05;79.92
59272;BME280;45043;51.068;7.026;2023-07-29T04:05:39;99553.47;;;16.07;79.85
59272;BME280;45043;51.068;7.026;2023-07-29T04:08:40;99563.13;;;16.08;79.88
59272;BME280;45043;51.068;7.026;2023-07-29T04:11:41;99567.91;;;16.06;79.73
59272;BME280;45043;51.068;7.026;2023-07-29T04:14:42;99570.06;;;16.04;79.63
59272;BME280;45043;51.068;7.026;2023-07-29T04:17:42;99575.16;;;16.06;79.94
59272;BME280;45043;51.068;7.026;2023-07-29T04:20:43;99583.94;;;16.01;80.01
59272;BME280;45043;51.068;7.026;2023-07-29T04:23:43;99604.53;;;15.95;80.18
59272;BME280;45043;51.068;7.026;2023-07-29T04:26:44;99583.03;;;15.90;79.97
59272;BME280;45043;51.068;7.026;2023-07-29T04:29:45;99589.47;;;15.89;79.98
59272;BME280;45043;51.068;7.026;2023-07-29T04:32:45;99592.16;;;15.89;80.05
59272;BME280;45043;51.068;7.026;2023-07-29T04:35:48;99597.22;;;15.86;80.30
59272;BME280;45043;51.068;7.026;2023-07-29T04:38:49;99590.25;;;15.85;80.05
59272;BME280;45043;51.068;7.026;2023-07-29T04:41:49;99588.09;;;15.87;80.36
59272;BME280;45043;51.068;7.026;2023-07-29T04:44:49;99584.38;;;15.88;79.83
59272;BME280;45043;51.068;7.026;2023-07-29T04:47:50;99606.34;;;15.90;80.35
59272;BME280;45043;51.068;7.026;2023-07-29T04:50:50;99611.97;;;15.88;79.79
59272;BME280;45043;51.068;7.026;2023-07-29T04:53:51;99616.00;;;15.91;79.54
59272;BME280;45043;51.068;7.026;2023-07-29T04:56:51;99622.47;;;15.95;78.39
59272;BME280;45043;51.068;7.026;2023-07-29T04:59:52;99617.94;;;15.95;78.28
59272;BME280;45043;51.068;7.026;2023-07-29T05:02:52;99612.34;;;16.02;77.71
59272;BME280;45043;51.068;7.026;2023-07-29T05:05:53;99612.16;;;16.09;77.53
59272;BME280;45043;51.068;7.026;2023-07-29T05:08:57;99607.91;;;16.13;76.64
59272;BME280;45043;51.068;7.026;2023-07-29T05:11:58;99596.44;;;16.17;76.30
59272;BME280;45043;51.068;7.026;2023-07-29T05:14:58;99592.72;;;16.23;75.67
59272;BME280;45043;51.068;7.026;2023-07-29T05:17:59;99595.53;;;16.34;75.32
59272;BME280;45043;51.068;7.026;2023-07-29T05:20:59;99591.84;;;16.45;74.57
59272;BME280;45043;51.068;7.026;2023-07-29T05:24:00;99591.06;;;16.49;73.84
59272;BME280;45043;51.068;7.026;2023-07-29T05:27:01;99600.78;;;16.56;73.57
59272;BME280;45043;51.068;7.026;2023-07-29T05:30:01;99594.09;;;16.58;73.09
59272;BME280;45043;51.068;7.026;2023-07-29T05:33:04;99591.97;;;16.60;72.97
59272;BME280;45043;51.068;7.026;2023-07-29T05:36:05;99599.22;;;16.65;72.57
59272;BME280;45043;51.068;7.026;2023-07-29T05:39:06;99611.59;;;16.66;71.92
59272;BME280;45043;51.068;7.026;2023-07-29T05:42:07;99627.13;;;16.64;72.62
59272;BME280;45043;51.068;7.026;2023-07-29T05:45:08;99628.69;;;16.60;72.26
59272;BME280;45043;51.068;7.026;2023-07-29T05:48:09;99632.91;;;16.50;72.50
59272;BME280;45043;51.068;7.026;2023-07-29T05:51:09;99634.44;;;16.41;73.02
59272;BME280;45043;51.068;7.026;2023-07-29T05:54:10;99639.25;;;16.39;72.88
59272;BME280;45043;51.068;7.026;2023-07-29T05:57:12;99647.84;;;16.41;72.81
59272;BME280;45043;51.068;7.026;2023-07-29T06:00:12;99664.44;;;16.38;72.38
59272;BME280;45043;51.068;7.026;2023-07-29T06:03:13;99662.25;;;16.35;72.06
59272;BME280;45043;51.068;7.026;2023-07-29T06:06:14;99660.91;;;16.33;72.43
59272;BME280;45043;51.068;7.026;2023-07-29T06:09:14;99658.72;;;16.30;71.85
59272;BME280;45043;51.068;7.026;2023-07-29T06:12:15;99680.09;;;16.24;71.52
59272;BME280;45043;51.068;7.026;2023-07-29T06:15:16;99677.06;;;16.16;71.21
59272;BME280;45043;51.068;7.026;2023-07-29T06:18:16;99670.63;;;16.17;70.74
59272;BME280;45043;51.068;7.026;2023-07-29T06:21:17;99682.44;;;16.16;70.36
59272;BME280;45043;51.068;7.026;2023-07-29T06:24:20;99675.47;;;16.15;70.68
59272;BME280;45043;51.068;7.026;2023-07-29T06:27:20;99677.88;;;16.16;70.38
59272;BME280;45043;51.068;7.026;2023-07-29T06:30:21;99698.00;;;16.19;70.36
59272;BME280;45043;51.068;7.026;2023-07-29T06:33:21;99703.00;;;16.10;70.14
59272;BME280;45043;51.068;7.026;2023-07-29T06:36:22;99694.13;;;16.10;70.74
59272;BME280;45043;51.068;7.026;2023-07-29T06:39:22;99689.94;;;16.14;70.32
59272;BME280;45043;51.068;7.026;2023-07-29T06:42:23;99699.63;;;16.20;70.03
59272;BME280;45043;51.068;7.026;2023-07-29T06:45:23;99699.56;;;16.15;70.21
59272;BME280;45043;51.068;7.026;2023-07-29T06:48:23;99685.91;;;16.16;69.83
59272;BME280;45043;51.068;7.026;2023-07-29T06:51:24;99696.16;;;16.24;70.17
59272;BME280;45043;51.068;7.026;2023-07-29T06:54:25;99695.97;;;16.31;69.84
59272;BME280;45043;51.068;7.026;2023-07-29T06:57:26;99693.38;;;16.36;69.31
59272;BME280;45043;51.068;7.026;2023-07-29T07:00:26;99691.84;;;16.45;69.37
59272;BME280;45043;51.068;7.026;2023-07-29T07:03:27;99690.88;;;16.57;69.36
59272;BME280;45043;51.068;7.026;2023-07-29T07:06:28;99699.63;;;16.74;68.51
59272;BME280;45043;51.068;7.026;2023-07-29T07:09:28;99702.94;;;16.91;68.34
59272;BME280;45043;51.068;7.026;2023-07-29T07:12:29;99700.94;;;17.09;67.05
59272;BME280;45043;51.068;7.026;2023-07-29T07:15:32;99687.59;;;17.19;66.89
59272;BME280;45043;51.068;7.026;2023-07-29T07:18:33;99693.00;;;17.24;66.28
59272;BME280;45043;51.068;7.026;2023-07-29T07:21:35;99695.47;;;17.36;65.64
59272;BME280;45043;51.068;7.026;2023-07-29T07:24:36;99696.34;;;17.46;64.58
59272;BME280;45043;51.068;7.026;2023-07-29T07:27:37;99691.03;;;17.62;63.71
59272;BME280;45043;51.068;7.026;2023-07-29T07:30:40;99686.81;;;17.81;63.63
59272;BME280;45043;51.068;7.026;2023-07-29T07:33:41;99706.25;;;17.99;62.19
59272;BME280;45043;51.068;7.026;2023-07-29T07:36:42;99693.88;;;17.98;61.30
59272;BME280;45043;51.068;7.026;2023-07-29T07:39:43;99697.13;;;18.00;60.36
59272;BME280;45043;51.068;7.026;2023-07-29T07:42:43;99712.44;;;18.04;60.04
59272;BME280;45043;51.068;7.026;2023-07-29T07:45:44;99727.75;;;17.99;60.36
59272;BME280;45043;51.068;7.026;2023-07-29T07:48:44;99706.22;;;17.93;59.23
59272;BME280;45043;51.068;7.026;2023-07-29T07:51:45;99720.38;;;17.79;58.65
59272;BME280;45043;51.068;7.026;2023-07-29T07:54:45;99722.75;;;17.65;59.04
59272;BME280;45043;51.068;7.026;2023-07-29T07:57:46;99716.78;;;17.53;58.49
59272;BME280;45043;51.068;7.026;2023-07-29T08:00:47;99720.78;;;17.45;58.72
59272;BME280;45043;51.068;7.026;2023-07-29T08:03:48;99719.63;;;17.36;58.80
59272;BME280;45043;51.068;7.026;2023-07-29T08:06:48;99717.78;;;17.36;58.39
59272;BME280;45043;51.068;7.026;2023-07-29T08:09:58;99715.38;;;17.40;59.04
59272;BME280;45043;51.068;7.026;2023-07-29T08:13:02;99720.41;;;17.31;58.12
59272;BME280;45043;51.068;7.026;2023-07-29T08:16:02;99716.63;;;17.27;58.60
59272;BME280;45043;51.068;7.026;2023-07-29T08:19:03;99716.94;;;17.36;58.65
59272;BME280;45043;51.068;7.026;2023-07-29T08:22:04;99719.97;;;17.44;58.49
59272;BME280;45043;51.068;7.026;2023-07-29T08:25:05;99718.94;;;17.56;58.68
59272;BME280;45043;51.068;7.026;2023-07-29T08:28:05;99711.53;;;17.78;57.69
59272;BME280;45043;51.068;7.026;2023-07-29T08:31:06;99703.06;;;18.07;57.46
59272;BME280;45043;51.068;7.026;2023-07-29T08:34:08;99706.56;;;18.17;56.56
59272;BME280;45043;51.068;7.026;2023-07-29T08:37:08;99715.66;;;18.06;56.27
59272;BME280;45043;51.068;7.026;2023-07-29T08:40:09;99699.00;;;18.09;56.13
59272;BME280;45043;51.068;7.026;2023-07-29T08:43:12;99702.00;;;18.28;55.39
59272;BME280;45043;51.068;7.026;2023-07-29T08:46:15;99720.28;;;18.21;55.13
59272;BME280;45043;51.068;7.026;2023-07-29T08:49:18;99716.50;;;18.17;54.24
59272;BME280;45043;51.068;7.026;2023-07-29T08:52:19;99745.78;;;18.03;53.97
59272;BME280;45043;51.068;7.026;2023-07-29T08:55:20;99733.66;;;17.96;53.79
59272;BME280;45043;51.068;7.026;2023-07-29T08:58:21;99730.34;;;17.83;54.25
59272;BME280;45043;51.068;7.026;2023-07-29T09:01:25;99729.47;;;17.67;55.38
59272;BME280;45043;51.068;7.026;2023-07-29T09:04:26;99721.41;;;17.62;55.19
59272;BME280;45043;51.068;7.026;2023-07-29T09:07:27;99728.38;;;17.63;55.49
59272;BME280;45043;51.068;7.026;2023-07-29T09:10:28;99723.81;;;17.59;54.77
59272;BME280;45043;51.068;7.026;2023-07-29T09:13:29;99730.78;;;17.55;54.66
59272;BME280;45043;51.068;7.026;2023-07-29T09:16:29;99737.22;;;17.59;54.45
59272;BME280;45043;51.068;7.026;2023-07-29T09:19:33;99738.84;;;17.60;53.89
59272;BME280;45043;51.068;7.026;2023-07-29T09:22:34;99741.31;;;17.71;53.84
59272;BME280;45043;51.068;7.026;2023-07-29T09:25:34;99743.25;;;17.86;53.50
59272;BME280;45043;51.068;7.026;2023-07-29T09:28:37;99743.84;;;17.93;53.18
59272;BME280;45043;51.068;7.026;2023-07-29T09:31:38;99736.34;;;17.96;53.12
59272;BME280;45043;51.068;7.026;2023-07-29T09:34:41;99737.44;;;18.00;53.42
59272;BME280;45043;51.068;7.026;2023-07-29T09:37:43;99738.53;;;18.09;52.88
59272;BME280;45043;51.068;7.026;2023-07-29T09:40:44;99730.78;;;18.23;52.75
59272;BME280;45043;51.068;7.026;2023-07-29T09:43:45;99741.53;;;18.23;53.00
59272;BME280;45043;51.068;7.026;2023-07-29T09:46:47;99736.97;;;18.18;53.35
59272;BME280;45043;51.068;7.026;2023-07-29T09:49:48;99724.84;;;18.21;52.66
59272;BME280;45043;51.068;7.026;2023-07-29T09:52:49;99734.28;;;18.28;52.94
59272;BME280;45043;51.068;7.026;2023-07-29T09:55:53;99741.28;;;18.29;52.91
59272;BME280;45043;51.068;7.026;2023-07-29T09:58:55;99724.88;;;18.36;52.64
59272;BME280;45043;51.068;7.026;2023-07-29T10:01:57;99728.91;;;18.38;52.16
59272;BME280;45043;51.068;7.026;2023-07-29T10:04:59;99732.66;;;18.27;52.64
59272;BME280;45043;51.068;7.026;2023-07-29T10:07:59;99731.03;;;18.21;52.78
59272;BME280;45043;51.068;7.026;2023-07-29T10:11:01;99751.44;;;18.12;52.56
59272;BME280;45043;51.068;7.026;2023-07-29T10:14:01;99747.63;;;17.92;52.13
59272;BME280;45043;51.068;7.026;2023-07-29T10:17:02;99738.47;;;17.93;52.52
59272;BME280;45043;51.068;7.026;2023-07-29T10:20:04;99726.97;;;18.03;52.45
59272;BME280;45043;51.068;7.026;2023-07-29T10:23:07;99732.09;;;18.15;52.23
59272;BME280;45043;51.068;7.026;2023-07-29T10:29:12;99742.81;;;18.00;52.70
59272;BME280;45043;51.068;7.026;2023-07-29T10:32:13;99744.34;;;17.85;52.92
59272;BME280;45043;51.068;7.026;2023-07-29T10:35:15;99743.75;;;17.73;53.28
59272;BME280;45043;51.068;7.026;2023-07-29T10:38:16;99738.63;;;17.71;54.04
59272;BME280;45043;51.068;7.026;2023-07-29T10:41:17;99746.16;;;17.69;54.31
59272;BME280;45043;51.068;7.026;2023-07-29T10:47:47;99754.97;;;17.65;55.18
59272;BME280;45043;51.068;7.026;2023-07-29T10:50:48;99751.72;;;17.58;55.49
59272;BME280;45043;51.068;7.026;2023-07-29T10:53:52;99748.50;;;17.56;55.81
59272;BME280;45043;51.068;7.026;2023-07-29T10:56:56;99746.88;;;17.55;55.68
59272;BME280;45043;51.068;7.026;2023-07-29T10:59:58;99747.44;;;17.62;55.80
59272;BME280;45043;51.068;7.026;2023-07-29T11:03:01;99748.00;;;17.64;56.41
59272;BME280;45043;51.068;7.026;2023-07-29T11:06:04;99747.19;;;17.68;56.07
59272;BME280;45043;51.068;7.026;2023-07-29T11:09:51;99740.56;;;17.81;56.56
59272;BME280;45043;51.068;7.026;2023-07-29T11:12:52;99730.63;;;17.82;55.97
59272;BME280;45043;51.068;7.026;2023-07-29T11:15:54;99729.53;;;17.78;55.79
59272;BME280;45043;51.068;7.026;2023-07-29T11:18:58;99727.94;;;17.82;55.46
59272;BME280;45043;51.068;7.026;2023-07-29T11:22:00;99728.28;;;17.96;55.40
59272;BME280;45043;51.068;7.026;2023-07-29T11:25:00;99726.94;;;17.98;55.61
59272;BME280;45043;51.068;7.026;2023-07-29T11:28:01;99721.88;;;18.07;55.27
59272;BME280;45043;51.068;7.026;2023-07-29T11:31:02;99724.06;;;18.25;54.05
59272;BME280;45043;51.068;7.026;2023-07-29T11:34:06;99710.63;;;18.30;53.43
59272;BME280;45043;51.068;7.026;2023-07-29T11:37:10;99725.97;;;18.30;53.34
59272;BME280;45043;51.068;7.026;2023-07-29T11:40:16;99733.50;;;18.33;53.46
59272;BME280;45043;51.068;7.026;2023-07-29T11:43:17;99724.34;;;18.39;53.36
59272;BME280;45043;51.068;7.026;2023-07-29T11:46:21;99711.19;;;18.48;52.92
59272;BME280;45043;51.068;7.026;2023-07-29T11:49:22;99717.13;;;18.55;53.61
59272;BME280;45043;51.068;7.026;2023-07-29T11:52:23;99715.28;;;18.71;53.34
59272;BME280;45043;51.068;7.026;2023-07-29T11:55:24;99718.22;;;18.79;52.87
59272;BME280;45043;51.068;7.026;2023-07-29T11:58:25;99714.19;;;18.77;53.06
59272;BME280;45043;51.068;7.026;2023-07-29T12:01:27;99725.22;;;18.70;53.00
59272;BME280;45043;51.068;7.026;2023-07-29T12:04:29;99721.66;;;18.54;53.00
59272;BME280;45043;51.068;7.026;2023-07-29T12:07:30;99719.53;;;18.56;53.63
59272;BME280;45043;51.068;7.026;2023-07-29T12:10:31;99713.94;;;18.73;53.95
59272;BME280;45043;51.068;7.026;2023-07-29T12:13:32;99708.28;;;18.85;53.03
59272;BME280;45043;51.068;7.026;2023-07-29T12:16:40;99702.31;;;18.98;52.19
59272;BME280;45043;51.068;7.026;2023-07-29T12:19:42;99711.16;;;19.24;51.60
59272;BME280;45043;51.068;7.026;2023-07-29T12:22:43;99706.56;;;19.45;51.32
59272;BME280;45043;51.068;7.026;2023-07-29T12:25:43;99702.47;;;19.63;50.47
59272;BME280;45043;51.068;7.026;2023-07-29T12:28:46;99699.13;;;19.86;49.94
59272;BME280;45043;51.068;7.026;2023-07-29T12:31:49;99708.16;;;20.16;48.73
59272;BME280;45043;51.068;7.026;2023-07-29T12:34:49;99695.00;;;20.49;48.68
59272;BME280;45043;51.068;7.026;2023-07-29T12:37:59;99684.03;;;20.69;48.06
59272;BME280;45043;51.068;7.026;2023-07-29T12:41:00;99682.78;;;20.91;48.23
59272;BME280;45043;51.068;7.026;2023-07-29T12:44:01;99689.34;;;20.85;47.41
59272;BME280;45043;51.068;7.026;2023-07-29T12:47:02;99685.66;;;20.70;47.59
59272;BME280;45043;51.068;7.026;2023-07-29T12:50:04;99685.94;;;20.69;47.36
59272;BME280;45043;51.068;7.026;2023-07-29T12:53:06;99688.44;;;20.60;47.41
59272;BME280;45043;51.068;7.026;2023-07-29T12:56:07;99692.66;;;20.37;47.44
59272;BME280;45043;51.068;7.026;2023-07-29T12:59:07;99704.13;;;20.14;47.45
59272;BME280;45043;51.068;7.026;2023-07-29T13:02:08;99697.63;;;20.20;47.80
59272;BME280;45043;51.068;7.026;2023-07-29T13:05:10;99677.91;;;20.24;47.37
59272;BME280;45043;51.068;7.026;2023-07-29T13:08:13;99670.47;;;20.11;48.06
59272;BME280;45043;51.068;7.026;2023-07-29T13:11:15;99666.72;;;19.97;48.27
59272;BME280;45043;51.068;7.026;2023-07-29T13:14:16;99679.75;;;19.84;48.34
59272;BME280;45043;51.068;7.026;2023-07-29T13:17:16;99682.50;;;19.69;48.91
59272;BME280;45043;51.068;7.026;2023-07-29T13:20:17;99680.97;;;19.48;48.78
59272;BME280;45043;51.068;7.026;2023-07-29T13:23:18;99691.22;;;19.30;49.43
59272;BME280;45043;51.068;7.026;2023-07-29T13:26:19;99693.44;;;19.18;50.14
59272;BME280;45043;51.068;7.026;2023-07-29T13:29:19;99689.41;;;19.05;50.89
59272;BME280;45043;51.068;7.026;2023-07-29T13:32:20;99704.75;;;19.05;51.17
59272;BME280;45043;51.068;7.026;2023-07-29T13:35:20;99697.75;;;18.94;51.12
59272;BME280;45043;51.068;7.026;2023-07-29T13:38:20;99697.78;;;18.78;51.87
59272;BME280;45043;51.068;7.026;2023-07-29T13:41:21;99701.00;;;18.75;51.90
59272;BME280;45043;51.068;7.026;2023-07-29T13:44:22;99695.09;;;18.68;52.02
59272;BME280;45043;51.068;7.026;2023-07-29T13:47:22;99695.34;;;18.72;52.08
59272;BME280;45043;51.068;7.026;2023-07-29T13:50:22;99692.13;;;18.75;52.60
59272;BME280;45043;51.068;7.026;2023-07-29T13:53:23;99694.56;;;18.71;53.08
59272;BME280;45043;51.068;7.026;2023-07-29T13:56:23;99697.47;;;18.64;53.68
59272;BME280;45043;51.068;7.026;2023-07-29T13:59:24;99705.25;;;18.46;53.90
59272;BME280;45043;51.068;7.026;2023-07-29T14:02:25;99697.97;;;18.36;54.55
59272;BME280;45043;51.068;7.026;2023-07-29T14:05:28;99704.16;;;18.26;55.20
59272;BME280;45043;51.068;7.026;2023-07-29T14:08:29;99724.56;;;18.17;55.97
59272;BME280;45043;51.068;7.026;2023-07-29T14:11:29;99717.53;;;18.06;57.03
59272;BME280;45043;51.068;7.026;2023-07-29T14:14:30;99717.06;;;18.14;57.07
59272;BME280;45043;51.068;7.026;2023-07-29T14:17:31;99709.28;;;18.23;57.10
59272;BME280;45043;51.068;7.026;2023-07-29T14:20:32;99705.53;;;18.34;56.42
59272;BME280;45043;51.068;7.026;2023-07-29T14:23:32;99700.41;;;18.58;56.65
59272;BME280;45043;51.068;7.026;2023-07-29T14:26:33;99709.63;;;18.93;56.59
59272;BME280;45043;51.068;7.026;2023-07-29T14:29:33;99724.91;;;19.18;55.99
59272;BME280;45043;51.068;7.026;2023-07-29T14:32:34;99718.50;;;19.94;54.57
59272;BME280;45043;51.068;7.026;2023-07-29T14:35:35;99707.41;;;20.50;52.83
59272;BME280;45043;51.068;7.026;2023-07-29T14:38:36;99716.28;;;21.43;50.84
59272;BME280;45043;51.068;7.026;2023-07-29T14:41:37;99725.03;;;21.35;47.91
59272;BME280;45043;51.068;7.026;2023-07-29T14:44:37;99727.66;;;20.87;47.27
59272;BME280;45043;51.068;7.026;2023-07-29T14:47:39;99719.31;;;20.44;47.55
59272;BME280;45043;51.068;7.026;2023-07-29T14:50:39;99723.78;;;20.19;48.45
59272;BME280;45043;51.068;7.026;2023-07-29T14:53:40;99728.69;;;20.12;49.03
59272;BME280;45043;51.068;7.026;2023-07-29T14:56:41;99716.88;;;19.98;50.07
59272;BME280;45043;51.068;7.026;2023-07-29T14:59:42;99710.16;;;19.90;50.51
59272;BME280;45043;51.068;7.026;2023-07-29T15:02:42;99710.72;;;19.92;51.14
59272;BME280;45043;51.068;7.026;2023-07-29T15:05:43;99713.66;;;19.96;51.04
59272;BME280;45043;51.068;7.026;2023-07-29T15:08:43;99713.91;;;19.99;51.44
59272;BME280;45043;51.068;7.026;2023-07-29T15:11:44;99710.38;;;20.04;51.70
59272;BME280;45043;51.068;7.026;2023-07-29T15:14:44;99709.81;;;20.02;51.87
59272;BME280;45043;51.068;7.026;2023-07-29T15:17:47;99725.50;;;20.00;51.41
59272;BME280;45043;51.068;7.026;2023-07-29T15:20:48;99710.34;;;20.14;51.68
59272;BME280;45043;51.068;7.026;2023-07-29T15:23:49;99714.31;;;20.27;51.23
59272;BME280;45043;51.068;7.026;2023-07-29T15:26:49;99706.97;;;20.32;51.28
59272;BME280;45043;51.068;7.026;2023-07-29T15:29:50;99695.72;;;20.20;51.62
59272;BME280;45043;51.068;7.026;2023-07-29T15:32:51;99688.25;;;20.07;50.99
59272;BME280;45043;51.068;7.026;2023-07-29T15:35:52;99685.56;;;20.02;51.28
59272;BME280;45043;51.068;7.026;2023-07-29T15:38:52;99688.31;;;19.97;51.42
59272;BME280;45043;51.068;7.026;2023-07-29T15:41:53;99695.84;;;20.00;51.84
59272;BME280;45043;51.068;7.026;2023-07-29T15:44:53;99686.06;;;20.09;51.87
59272;BME280;45043;51.068;7.026;2023-07-29T15:47:54;99688.44;;;20.21;50.83
59272;BME280;45043;51.068;7.026;2023-07-29T15:50:54;99703.22;;;20.28;50.39
59272;BME280;45043;51.068;7.026;2023-07-29T15:53:55;99690.97;;;20.46;49.79
59272;BME280;45043;51.068;7.026;2023-07-29T15:56:55;99700.72;;;21.11;48.89
59272;BME280;45043;51.068;7.026;2023-07-29T15:59:56;99693.75;;;21.28;48.16
59272;BME280;45043;51.068;7.026;2023-07-29T16:02:56;99691.88;;;21.96;47.46
59272;BME280;45043;51.068;7.026;2023-07-29T16:05:56;99698.13;;;22.15;46.25
59272;BME280;45043;51.068;7.026;2023-07-29T16:08:58;99693.63;;;22.06;46.36
59272;BME280;45043;51.068;7.026;2023-07-29T16:12:00;99689.88;;;21.83;45.42
59272;BME280;45043;51.068;7.026;2023-07-29T16:15:02;99705.53;;;21.38;45.52